sensor_id;sensor_type;location;lat;lon;timestamp;P1;durP1;ratioP1;P2;durP2;ratioP2
2994;SDS011;35277;49.890;8.222;2023-01-26T00:01:13;1.43;;;0.60;;
2994;SDS011;35277;49.890;8.222;2023-01-26T00:03:42;1.10;;;0.73;;
2994;SDS011;35277;49.890;8.222;2023-01-26T00:06:11;1.00;;;0.60;;
2994;SDS011;35277;49.890;8.222;2023-01-26T00:08:42;1.37;;;0.60;;
2994;SDS011;35277;49.890;8.222;2023-01-26T00:11:11;3.00;;;1.50;;
2994;SDS011;35277;49.890;8.222;2023-01-26T00:13:40;1.63;;;1.07;;
2994;SDS011;35277;49.890;8.222;2023-01-26T00:16:08;1.47;;;0.97;;
2994;SDS011;35277;49.890;8.222;2023-01-26T00:18:38;1.10;;;0.60;;
2994;SDS011;35277;49.890;8.222;2023-01-26T00:21:07;2.40;;;0.70;;
2994;SDS011;35277;49.890;8.222;2023-01-26T00:23:37;1.33;;;0.73;;
2994;SDS011;35277;49.890;8.222;2023-01-26T00:26:07;1.27;;;0.53;;
2994;SDS011;35277;49.890;8.222;2023-01-26T00:28:37;1.83;;;1.73;;
2994;SDS011;35277;49.890;8.222;2023-01-26T00:31:06;1.63;;;1.30;;
2994;SDS011;35277;49.890;8.222;2023-01-26T00:33:35;0.97;;;0.50;;
2994;SDS011;35277;49.890;8.222;2023-01-26T00:36:03;1.53;;;1.37;;
2994;SDS011;35277;49.890;8.222;2023-01-26T00:38:31;1.03;;;0.70;;
2994;SDS011;35277;49.890;8.222;2023-01-26T00:40:59;1.10;;;0.87;;
2994;SDS011;35277;49.890;8.222;2023-01-26T00:43:29;1.60;;;0.90;;
2994;SDS011;35277;49.890;8.222;2023-01-26T00:45:56;1.00;;;0.40;;
2994;SDS011;35277;49.890;8.222;2023-01-26T00:48:24;2.27;;;1.00;;
2994;SDS011;35277;49.890;8.222;2023-01-26T00:50:52;1.67;;;1.13;;
2994;SDS011;35277;49.890;8.222;2023-01-26T00:53:20;1.50;;;0.90;;
2994;SDS011;35277;49.890;8.222;2023-01-26T00:55:48;1.90;;;1.27;;
2994;SDS011;35277;49.890;8.222;2023-01-26T00:58:15;1.80;;;1.50;;
2994;SDS011;35277;49.890;8.222;2023-01-26T01:00:44;1.77;;;0.83;;
2994;SDS011;35277;49.890;8.222;2023-01-26T01:03:12;1.57;;;1.20;;
2994;SDS011;35277;49.890;8.222;2023-01-26T01:05:40;1.87;;;0.77;;
2994;SDS011;35277;49.890;8.222;2023-01-26T01:08:10;1.10;;;0.87;;
2994;SDS011;35277;49.890;8.222;2023-01-26T01:10:38;1.10;;;0.70;;
2994;SDS011;35277;49.890;8.222;2023-01-26T01:13:06;4.00;;;1.20;;
2994;SDS011;35277;49.890;8.222;2023-01-26T01:15:34;1.10;;;0.67;;
2994;SDS011;35277;49.890;8.222;2023-01-26T01:18:05;1.40;;;0.90;;
2994;SDS011;35277;49.890;8.222;2023-01-26T01:20:33;2.80;;;1.17;;
2994;SDS011;35277;49.890;8.222;2023-01-26T01:23:01;3.17;;;2.87;;
2994;SDS011;35277;49.890;8.222;2023-01-26T01:25:28;1.20;;;0.87;;
2994;SDS011;35277;49.890;8.222;2023-01-26T01:27:56;2.93;;;2.63;;
2994;SDS011;35277;49.890;8.222;2023-01-26T01:30:24;1.50;;;1.13;;
2994;SDS011;35277;49.890;8.222;2023-01-26T01:32:52;1.57;;;0.97;;
2994;SDS011;35277;49.890;8.222;2023-01-26T01:35:21;1.50;;;1.13;;
2994;SDS011;35277;49.890;8.222;2023-01-26T01:37:49;1.00;;;0.40;;
2994;SDS011;35277;49.890;8.222;2023-01-26T01:40:16;1.10;;;0.53;;
2994;SDS011;35277;49.890;8.222;2023-01-26T01:42:45;1.57;;;0.70;;
2994;SDS011;35277;49.890;8.222;2023-01-26T01:45:34;1.53;;;1.43;;
2994;SDS011;35277;49.890;8.222;2023-01-26T01:48:09;1.00;;;0.53;;
2994;SDS011;35277;49.890;8.222;2023-01-26T01:50:42;1.60;;;1.17;;
2994;SDS011;35277;49.890;8.222;2023-01-26T01:53:11;3.47;;;1.13;;
2994;SDS011;35277;49.890;8.222;2023-01-26T01:55:44;2.47;;;1.03;;
2994;SDS011;35277;49.890;8.222;2023-01-26T01:58:12;4.60;;;1.63;;
2994;SDS011;35277;49.890;8.222;2023-01-26T02:00:41;2.90;;;0.70;;
2994;SDS011;35277;49.890;8.222;2023-01-26T02:03:09;1.20;;;0.70;;
2994;SDS011;35277;49.890;8.222;2023-01-26T02:05:44;2.33;;;0.80;;
2994;SDS011;35277;49.890;8.222;2023-01-26T02:08:18;1.63;;;1.50;;
2994;SDS011;35277;49.890;8.222;2023-01-26T02:10:51;1.30;;;0.90;;
2994;SDS011;35277;49.890;8.222;2023-01-26T02:13:21;1.27;;;1.13;;
2994;SDS011;35277;49.890;8.222;2023-01-26T02:15:50;1.20;;;0.80;;
2994;SDS011;35277;49.890;8.222;2023-01-26T02:18:18;1.20;;;0.80;;
2994;SDS011;35277;49.890;8.222;2023-01-26T02:20:48;1.00;;;0.60;;
2994;SDS011;35277;49.890;8.222;2023-01-26T02:23:26;0.93;;;0.40;;
2994;SDS011;35277;49.890;8.222;2023-01-26T02:26:04;1.30;;;0.67;;
2994;SDS011;35277;49.890;8.222;2023-01-26T02:28:33;1.63;;;1.33;;
2994;SDS011;35277;49.890;8.222;2023-01-26T02:31:01;1.10;;;0.60;;
2994;SDS011;35277;49.890;8.222;2023-01-26T02:33:30;3.10;;;1.33;;
2994;SDS011;35277;49.890;8.222;2023-01-26T02:36:02;1.10;;;0.70;;
2994;SDS011;35277;49.890;8.222;2023-01-26T02:38:34;1.00;;;0.60;;
2994;SDS011;35277;49.890;8.222;2023-01-26T02:41:08;1.30;;;0.67;;
2994;SDS011;35277;49.890;8.222;2023-01-26T02:43:39;1.30;;;1.03;;
2994;SDS011;35277;49.890;8.222;2023-01-26T02:46:06;1.70;;;0.90;;
2994;SDS011;35277;49.890;8.222;2023-01-26T02:48:36;1.00;;;0.50;;
2994;SDS011;35277;49.890;8.222;2023-01-26T02:51:22;2.13;;;1.10;;
2994;SDS011;35277;49.890;8.222;2023-01-26T02:53:50;1.00;;;0.50;;
2994;SDS011;35277;49.890;8.222;2023-01-26T02:56:19;1.20;;;0.93;;
2994;SDS011;35277;49.890;8.222;2023-01-26T02:58:46;4.67;;;1.53;;
2994;SDS011;35277;49.890;8.222;2023-01-26T03:01:14;1.60;;;1.07;;
2994;SDS011;35277;49.890;8.222;2023-01-26T03:03:48;1.00;;;0.77;;
2994;SDS011;35277;49.890;8.222;2023-01-26T03:06:18;5.67;;;0.97;;
2994;SDS011;35277;49.890;8.222;2023-01-26T03:08:46;3.63;;;1.03;;
2994;SDS011;35277;49.890;8.222;2023-01-26T03:11:13;1.40;;;0.80;;
2994;SDS011;35277;49.890;8.222;2023-01-26T03:13:42;1.60;;;0.93;;
2994;SDS011;35277;49.890;8.222;2023-01-26T03:16:10;3.13;;;1.77;;
2994;SDS011;35277;49.890;8.222;2023-01-26T03:18:40;1.10;;;0.90;;
2994;SDS011;35277;49.890;8.222;2023-01-26T03:21:26;1.00;;;0.60;;
2994;SDS011;35277;49.890;8.222;2023-01-26T03:24:12;1.17;;;0.83;;
2994;SDS011;35277;49.890;8.222;2023-01-26T03:27:00;1.00;;;0.50;;
2994;SDS011;35277;49.890;8.222;2023-01-26T03:29:47;1.60;;;1.20;;
2994;SDS011;35277;49.890;8.222;2023-01-26T03:32:15;1.60;;;1.50;;
2994;SDS011;35277;49.890;8.222;2023-01-26T03:34:42;1.00;;;0.50;;
2994;SDS011;35277;49.890;8.222;2023-01-26T03:37:10;1.10;;;0.60;;
2994;SDS011;35277;49.890;8.222;2023-01-26T03:39:56;2.80;;;1.57;;
2994;SDS011;35277;49.890;8.222;2023-01-26T03:42:41;2.50;;;1.10;;
2994;SDS011;35277;49.890;8.222;2023-01-26T03:45:29;1.40;;;0.60;;
2994;SDS011;35277;49.890;8.222;2023-01-26T03:48:14;1.20;;;0.73;;
2994;SDS011;35277;49.890;8.222;2023-01-26T03:51:03;1.17;;;0.80;;
2994;SDS011;35277;49.890;8.222;2023-01-26T03:53:48;1.10;;;0.50;;
2994;SDS011;35277;49.890;8.222;2023-01-26T03:56:34;1.00;;;0.50;;
2994;SDS011;35277;49.890;8.222;2023-01-26T03:59:11;1.00;;;0.50;;
2994;SDS011;35277;49.890;8.222;2023-01-26T04:01:43;2.17;;;2.00;;
2994;SDS011;35277;49.890;8.222;2023-01-26T04:04:31;1.00;;;0.40;;
2994;SDS011;35277;49.890;8.222;2023-01-26T04:07:19;1.60;;;0.50;;
2994;SDS011;35277;49.890;8.222;2023-01-26T04:10:05;1.10;;;0.93;;
2994;SDS011;35277;49.890;8.222;2023-01-26T04:12:33;1.00;;;0.60;;
2994;SDS011;35277;49.890;8.222;2023-01-26T04:15:11;1.03;;;0.57;;
2994;SDS011;35277;49.890;8.222;2023-01-26T04:17:59;3.63;;;3.33;;
2994;SDS011;35277;49.890;8.222;2023-01-26T04:20:50;1.00;;;0.40;;
2994;SDS011;35277;49.890;8.222;2023-01-26T04:23:37;1.10;;;0.70;;
2994;SDS011;35277;49.890;8.222;2023-01-26T04:26:05;1.83;;;0.87;;
2994;SDS011;35277;49.890;8.222;2023-01-26T04:28:33;1.30;;;0.70;;
2994;SDS011;35277;49.890;8.222;2023-01-26T04:31:01;1.20;;;0.67;;
2994;SDS011;35277;49.890;8.222;2023-01-26T04:33:34;1.47;;;1.00;;
2994;SDS011;35277;49.890;8.222;2023-01-26T04:36:03;1.10;;;0.70;;
2994;SDS011;35277;49.890;8.222;2023-01-26T04:38:33;1.10;;;0.70;;
2994;SDS011;35277;49.890;8.222;2023-01-26T04:41:01;1.00;;;0.50;;
2994;SDS011;35277;49.890;8.222;2023-01-26T04:43:34;1.00;;;0.47;;
2994;SDS011;35277;49.890;8.222;2023-01-26T04:46:04;1.37;;;0.70;;
2994;SDS011;35277;49.890;8.222;2023-01-26T04:48:36;1.30;;;0.80;;
2994;SDS011;35277;49.890;8.222;2023-01-26T04:51:05;6.30;;;2.30;;
2994;SDS011;35277;49.890;8.222;2023-01-26T04:53:34;1.30;;;1.17;;
2994;SDS011;35277;49.890;8.222;2023-01-26T04:56:02;1.37;;;0.93;;
2994;SDS011;35277;49.890;8.222;2023-01-26T04:58:31;1.30;;;0.93;;
2994;SDS011;35277;49.890;8.222;2023-01-26T05:00:59;1.00;;;0.60;;
2994;SDS011;35277;49.890;8.222;2023-01-26T05:03:28;1.93;;;0.87;;
2994;SDS011;35277;49.890;8.222;2023-01-26T05:05:57;1.00;;;0.50;;
2994;SDS011;35277;49.890;8.222;2023-01-26T05:08:25;1.20;;;0.70;;
2994;SDS011;35277;49.890;8.222;2023-01-26T05:10:52;1.10;;;0.73;;
2994;SDS011;35277;49.890;8.222;2023-01-26T05:13:23;1.37;;;1.27;;
2994;SDS011;35277;49.890;8.222;2023-01-26T05:16:08;2.40;;;0.60;;
2994;SDS011;35277;49.890;8.222;2023-01-26T05:18:52;3.40;;;1.93;;
2994;SDS011;35277;49.890;8.222;2023-01-26T05:21:43;1.10;;;0.60;;
2994;SDS011;35277;49.890;8.222;2023-01-26T05:24:12;1.00;;;0.40;;
2994;SDS011;35277;49.890;8.222;2023-01-26T05:26:58;1.00;;;0.50;;
2994;SDS011;35277;49.890;8.222;2023-01-26T05:29:40;1.57;;;0.97;;
2994;SDS011;35277;49.890;8.222;2023-01-26T05:32:08;1.20;;;0.70;;
2994;SDS011;35277;49.890;8.222;2023-01-26T05:34:36;1.00;;;0.60;;
2994;SDS011;35277;49.890;8.222;2023-01-26T05:37:06;1.00;;;0.73;;
2994;SDS011;35277;49.890;8.222;2023-01-26T05:39:34;1.20;;;0.67;;
2994;SDS011;35277;49.890;8.222;2023-01-26T05:42:04;1.80;;;0.97;;
2994;SDS011;35277;49.890;8.222;2023-01-26T05:45:00;1.63;;;1.53;;
2994;SDS011;35277;49.890;8.222;2023-01-26T05:47:28;1.00;;;0.50;;
2994;SDS011;35277;49.890;8.222;2023-01-26T05:49:56;1.53;;;1.17;;
2994;SDS011;35277;49.890;8.222;2023-01-26T05:52:30;1.27;;;1.10;;
2994;SDS011;35277;49.890;8.222;2023-01-26T05:54:58;1.00;;;0.40;;
2994;SDS011;35277;49.890;8.222;2023-01-26T05:57:26;2.23;;;1.00;;
2994;SDS011;35277;49.890;8.222;2023-01-26T06:00:02;1.57;;;0.80;;
2994;SDS011;35277;49.890;8.222;2023-01-26T06:02:38;1.20;;;0.90;;
2994;SDS011;35277;49.890;8.222;2023-01-26T06:05:11;1.20;;;0.83;;
2994;SDS011;35277;49.890;8.222;2023-01-26T06:07:42;1.00;;;0.50;;
2994;SDS011;35277;49.890;8.222;2023-01-26T06:10:16;1.00;;;0.50;;
2994;SDS011;35277;49.890;8.222;2023-01-26T06:12:56;0.90;;;0.40;;
2994;SDS011;35277;49.890;8.222;2023-01-26T06:15:39;1.40;;;0.73;;
2994;SDS011;35277;49.890;8.222;2023-01-26T06:18:08;1.00;;;0.50;;
2994;SDS011;35277;49.890;8.222;2023-01-26T06:20:38;1.50;;;1.20;;
2994;SDS011;35277;49.890;8.222;2023-01-26T06:23:10;1.70;;;1.03;;
2994;SDS011;35277;49.890;8.222;2023-01-26T06:25:39;2.80;;;1.50;;
2994;SDS011;35277;49.890;8.222;2023-01-26T06:28:06;2.70;;;1.10;;
2994;SDS011;35277;49.890;8.222;2023-01-26T06:30:35;1.57;;;0.93;;
2994;SDS011;35277;49.890;8.222;2023-01-26T06:33:06;1.83;;;1.40;;
2994;SDS011;35277;49.890;8.222;2023-01-26T06:35:36;1.20;;;0.60;;
2994;SDS011;35277;49.890;8.222;2023-01-26T06:38:09;1.40;;;0.73;;
2994;SDS011;35277;49.890;8.222;2023-01-26T06:40:40;2.43;;;2.00;;
2994;SDS011;35277;49.890;8.222;2023-01-26T06:43:08;2.30;;;2.10;;
2994;SDS011;35277;49.890;8.222;2023-01-26T06:45:36;1.00;;;0.40;;
2994;SDS011;35277;49.890;8.222;2023-01-26T06:48:04;2.80;;;2.40;;
2994;SDS011;35277;49.890;8.222;2023-01-26T06:50:32;1.63;;;1.27;;
2994;SDS011;35277;49.890;8.222;2023-01-26T06:53:03;1.30;;;0.93;;
2994;SDS011;35277;49.890;8.222;2023-01-26T06:56:05;1.63;;;1.00;;
2994;SDS011;35277;49.890;8.222;2023-01-26T06:58:45;1.10;;;0.80;;
2994;SDS011;35277;49.890;8.222;2023-01-26T07:01:32;1.30;;;0.80;;
2994;SDS011;35277;49.890;8.222;2023-01-26T07:04:02;1.37;;;0.70;;
2994;SDS011;35277;49.890;8.222;2023-01-26T07:06:30;1.00;;;0.50;;
2994;SDS011;35277;49.890;8.222;2023-01-26T07:08:58;1.00;;;0.60;;
2994;SDS011;35277;49.890;8.222;2023-01-26T07:11:27;1.00;;;0.60;;
2994;SDS011;35277;49.890;8.222;2023-01-26T07:13:57;1.30;;;1.17;;
2994;SDS011;35277;49.890;8.222;2023-01-26T07:16:25;1.13;;;0.73;;
2994;SDS011;35277;49.890;8.222;2023-01-26T07:18:53;1.00;;;0.43;;
2994;SDS011;35277;49.890;8.222;2023-01-26T07:21:22;1.00;;;0.70;;
2994;SDS011;35277;49.890;8.222;2023-01-26T07:23:50;1.00;;;0.53;;
2994;SDS011;35277;49.890;8.222;2023-01-26T07:26:18;1.90;;;1.70;;
2994;SDS011;35277;49.890;8.222;2023-01-26T07:28:47;1.00;;;0.50;;
2994;SDS011;35277;49.890;8.222;2023-01-26T07:31:15;1.50;;;1.13;;
2994;SDS011;35277;49.890;8.222;2023-01-26T07:33:43;1.30;;;1.17;;
2994;SDS011;35277;49.890;8.222;2023-01-26T07:36:11;2.23;;;1.13;;
2994;SDS011;35277;49.890;8.222;2023-01-26T07:38:39;0.97;;;0.40;;
2994;SDS011;35277;49.890;8.222;2023-01-26T07:41:08;1.10;;;0.70;;
2994;SDS011;35277;49.890;8.222;2023-01-26T07:43:38;1.00;;;0.50;;
2994;SDS011;35277;49.890;8.222;2023-01-26T07:46:08;1.00;;;0.40;;
2994;SDS011;35277;49.890;8.222;2023-01-26T07:48:37;2.97;;;1.90;;
2994;SDS011;35277;49.890;8.222;2023-01-26T07:51:06;1.00;;;0.40;;
2994;SDS011;35277;49.890;8.222;2023-01-26T07:53:36;4.30;;;1.13;;
2994;SDS011;35277;49.890;8.222;2023-01-26T07:56:08;1.00;;;0.60;;
2994;SDS011;35277;49.890;8.222;2023-01-26T07:58:38;1.20;;;0.80;;
2994;SDS011;35277;49.890;8.222;2023-01-26T08:01:07;0.97;;;0.40;;
2994;SDS011;35277;49.890;8.222;2023-01-26T08:03:37;1.00;;;0.50;;
2994;SDS011;35277;49.890;8.222;2023-01-26T08:06:06;1.03;;;0.60;;
2994;SDS011;35277;49.890;8.222;2023-01-26T08:08:40;1.07;;;0.50;;
2994;SDS011;35277;49.890;8.222;2023-01-26T08:11:08;1.10;;;0.70;;
2994;SDS011;35277;49.890;8.222;2023-01-26T08:13:37;1.67;;;1.20;;
2994;SDS011;35277;49.890;8.222;2023-01-26T08:16:06;1.00;;;0.60;;
2994;SDS011;35277;49.890;8.222;2023-01-26T08:18:38;1.10;;;0.60;;
2994;SDS011;35277;49.890;8.222;2023-01-26T08:21:05;1.13;;;0.67;;
2994;SDS011;35277;49.890;8.222;2023-01-26T08:23:33;1.40;;;0.90;;
2994;SDS011;35277;49.890;8.222;2023-01-26T08:26:02;1.93;;;0.70;;
2994;SDS011;35277;49.890;8.222;2023-01-26T08:28:30;1.10;;;0.60;;
2994;SDS011;35277;49.890;8.222;2023-01-26T08:31:02;1.83;;;1.73;;
2994;SDS011;35277;49.890;8.222;2023-01-26T08:33:32;1.00;;;0.40;;
2994;SDS011;35277;49.890;8.222;2023-01-26T08:36:00;1.33;;;0.90;;
2994;SDS011;35277;49.890;8.222;2023-01-26T08:38:29;1.00;;;0.50;;
2994;SDS011;35277;49.890;8.222;2023-01-26T08:40:57;0.90;;;0.40;;
2994;SDS011;35277;49.890;8.222;2023-01-26T08:43:25;1.97;;;0.80;;
2994;SDS011;35277;49.890;8.222;2023-01-26T08:45:53;1.00;;;0.50;;
2994;SDS011;35277;49.890;8.222;2023-01-26T08:48:21;1.17;;;0.80;;
2994;SDS011;35277;49.890;8.222;2023-01-26T08:50:53;1.00;;;0.50;;
2994;SDS011;35277;49.890;8.222;2023-01-26T08:53:22;1.00;;;0.50;;
2994;SDS011;35277;49.890;8.222;2023-01-26T08:55:50;1.00;;;0.50;;
2994;SDS011;35277;49.890;8.222;2023-01-26T08:58:18;1.00;;;0.40;;
2994;SDS011;35277;49.890;8.222;2023-01-26T09:00:46;1.03;;;0.50;;
2994;SDS011;35277;49.890;8.222;2023-01-26T09:03:14;1.30;;;0.80;;
2994;SDS011;35277;49.890;8.222;2023-01-26T09:05:42;0.97;;;0.40;;
2994;SDS011;35277;49.890;8.222;2023-01-26T09:08:11;1.27;;;0.70;;
2994;SDS011;35277;49.890;8.222;2023-01-26T09:10:39;1.30;;;0.90;;
2994;SDS011;35277;49.890;8.222;2023-01-26T09:13:08;1.17;;;1.07;;
2994;SDS011;35277;49.890;8.222;2023-01-26T09:15:36;1.00;;;0.50;;
2994;SDS011;35277;49.890;8.222;2023-01-26T09:18:04;2.20;;;1.20;;
2994;SDS011;35277;49.890;8.222;2023-01-26T09:20:32;1.20;;;1.03;;
2994;SDS011;35277;49.890;8.222;2023-01-26T09:23:00;1.00;;;0.50;;
2994;SDS011;35277;49.890;8.222;2023-01-26T09:25:29;1.00;;;0.50;;
2994;SDS011;35277;49.890;8.222;2023-01-26T09:27:56;1.10;;;0.63;;
2994;SDS011;35277;49.890;8.222;2023-01-26T09:30:24;1.00;;;0.50;;
2994;SDS011;35277;49.890;8.222;2023-01-26T09:32:56;1.10;;;0.60;;
2994;SDS011;35277;49.890;8.222;2023-01-26T09:35:24;1.27;;;0.63;;
2994;SDS011;35277;49.890;8.222;2023-01-26T09:37:52;2.00;;;1.90;;
2994;SDS011;35277;49.890;8.222;2023-01-26T09:40:21;1.10;;;0.80;;
2994;SDS011;35277;49.890;8.222;2023-01-26T09:43:00;1.27;;;0.90;;
2994;SDS011;35277;49.890;8.222;2023-01-26T09:45:37;0.97;;;0.47;;
2994;SDS011;35277;49.890;8.222;2023-01-26T09:48:13;1.00;;;0.50;;
2994;SDS011;35277;49.890;8.222;2023-01-26T09:50:51;2.37;;;1.50;;
2994;SDS011;35277;49.890;8.222;2023-01-26T09:53:23;1.00;;;0.50;;
2994;SDS011;35277;49.890;8.222;2023-01-26T09:55:54;1.10;;;0.67;;
2994;SDS011;35277;49.890;8.222;2023-01-26T09:58:27;1.00;;;0.50;;
2994;SDS011;35277;49.890;8.222;2023-01-26T10:01:00;1.00;;;0.50;;
2994;SDS011;35277;49.890;8.222;2023-01-26T10:03:30;1.50;;;1.10;;
2994;SDS011;35277;49.890;8.222;2023-01-26T10:06:09;1.47;;;1.13;;
2994;SDS011;35277;49.890;8.222;2023-01-26T10:09:00;1.43;;;0.90;;
2994;SDS011;35277;49.890;8.222;2023-01-26T10:11:33;5.30;;;1.43;;
2994;SDS011;35277;49.890;8.222;2023-01-26T10:14:10;1.20;;;0.83;;
2994;SDS011;35277;49.890;8.222;2023-01-26T10:16:40;1.00;;;0.57;;
2994;SDS011;35277;49.890;8.222;2023-01-26T10:19:11;0.93;;;0.40;;
2994;SDS011;35277;49.890;8.222;2023-01-26T10:21:45;1.10;;;0.73;;
2994;SDS011;35277;49.890;8.222;2023-01-26T10:24:18;1.53;;;1.20;;
2994;SDS011;35277;49.890;8.222;2023-01-26T10:26:48;1.30;;;1.20;;
2994;SDS011;35277;49.890;8.222;2023-01-26T10:29:19;1.00;;;0.63;;
2994;SDS011;35277;49.890;8.222;2023-01-26T10:31:48;1.00;;;0.60;;
2994;SDS011;35277;49.890;8.222;2023-01-26T10:34:17;1.17;;;0.93;;
2994;SDS011;35277;49.890;8.222;2023-01-26T10:36:49;2.03;;;0.83;;
2994;SDS011;35277;49.890;8.222;2023-01-26T10:39:16;1.37;;;0.90;;
2994;SDS011;35277;49.890;8.222;2023-01-26T10:41:57;1.03;;;0.57;;
2994;SDS011;35277;49.890;8.222;2023-01-26T10:44:31;1.93;;;1.53;;
2994;SDS011;35277;49.890;8.222;2023-01-26T10:47:12;1.73;;;1.37;;
2994;SDS011;35277;49.890;8.222;2023-01-26T10:49:42;3.90;;;3.53;;
2994;SDS011;35277;49.890;8.222;2023-01-26T10:52:14;1.87;;;1.37;;
2994;SDS011;35277;49.890;8.222;2023-01-26T10:54:43;1.20;;;1.03;;
2994;SDS011;35277;49.890;8.222;2023-01-26T10:57:13;3.20;;;2.63;;
2994;SDS011;35277;49.890;8.222;2023-01-26T10:59:49;13.47;;;9.90;;
2994;SDS011;35277;49.890;8.222;2023-01-26T11:02:20;9.53;;;6.33;;
2994;SDS011;35277;49.890;8.222;2023-01-26T11:07:48;8.43;;;7.03;;
2994;SDS011;35277;49.890;8.222;2023-01-26T11:10:24;16.57;;;11.27;;
2994;SDS011;35277;49.890;8.222;2023-01-26T11:13:13;8.70;;;7.87;;
2994;SDS011;35277;49.890;8.222;2023-01-26T11:15:45;13.33;;;8.67;;
2994;SDS011;35277;49.890;8.222;2023-01-26T11:18:20;18.70;;;7.10;;
2994;SDS011;35277;49.890;8.222;2023-01-26T11:20:55;15.03;;;7.53;;
2994;SDS011;35277;49.890;8.222;2023-01-26T11:23:28;11.33;;;4.40;;
2994;SDS011;35277;49.890;8.222;2023-01-26T11:26:30;4.20;;;3.80;;
2994;SDS011;35277;49.890;8.222;2023-01-26T11:29:31;3.30;;;2.10;;
2994;SDS011;35277;49.890;8.222;2023-01-26T11:32:15;6.80;;;2.30;;
2994;SDS011;35277;49.890;8.222;2023-01-26T11:34:51;4.30;;;2.30;;
2994;SDS011;35277;49.890;8.222;2023-01-26T11:40:18;1.43;;;0.97;;
2994;SDS011;35277;49.890;8.222;2023-01-26T11:42:57;1.90;;;1.30;;
2994;SDS011;35277;49.890;8.222;2023-01-26T11:45:42;1.50;;;1.40;;
2994;SDS011;35277;49.890;8.222;2023-01-26T11:48:33;3.97;;;2.30;;
2994;SDS011;35277;49.890;8.222;2023-01-26T11:51:13;1.73;;;1.63;;
2994;SDS011;35277;49.890;8.222;2023-01-26T11:53:53;4.60;;;2.00;;
2994;SDS011;35277;49.890;8.222;2023-01-26T11:56:48;2.43;;;2.00;;
2994;SDS011;35277;49.890;8.222;2023-01-26T11:59:20;3.57;;;3.23;;
2994;SDS011;35277;49.890;8.222;2023-01-26T12:01:53;2.47;;;1.73;;
2994;SDS011;35277;49.890;8.222;2023-01-26T12:04:27;5.23;;;3.03;;
2994;SDS011;35277;49.890;8.222;2023-01-26T12:07:03;1.83;;;1.23;;
2994;SDS011;35277;49.890;8.222;2023-01-26T12:09:38;5.27;;;1.53;;
2994;SDS011;35277;49.890;8.222;2023-01-26T12:12:09;2.43;;;1.17;;
2994;SDS011;35277;49.890;8.222;2023-01-26T12:14:40;11.30;;;2.77;;
2994;SDS011;35277;49.890;8.222;2023-01-26T12:17:22;6.93;;;1.93;;
2994;SDS011;35277;49.890;8.222;2023-01-26T12:19:57;2.43;;;2.00;;
2994;SDS011;35277;49.890;8.222;2023-01-26T12:22:31;2.27;;;1.03;;
2994;SDS011;35277;49.890;8.222;2023-01-26T12:25:02;1.80;;;1.30;;
2994;SDS011;35277;49.890;8.222;2023-01-26T12:27:55;3.00;;;2.80;;
2994;SDS011;35277;49.890;8.222;2023-01-26T12:30:30;1.73;;;1.63;;
2994;SDS011;35277;49.890;8.222;2023-01-26T12:33:03;2.57;;;1.73;;
2994;SDS011;35277;49.890;8.222;2023-01-26T12:35:37;11.73;;;2.10;;
2994;SDS011;35277;49.890;8.222;2023-01-26T12:38:21;2.07;;;1.20;;
2994;SDS011;35277;49.890;8.222;2023-01-26T12:40:57;2.70;;;1.50;;
2994;SDS011;35277;49.890;8.222;2023-01-26T12:43:35;1.10;;;0.97;;
2994;SDS011;35277;49.890;8.222;2023-01-26T12:46:11;1.90;;;1.07;;
2994;SDS011;35277;49.890;8.222;2023-01-26T12:48:41;1.47;;;1.37;;
2994;SDS011;35277;49.890;8.222;2023-01-26T12:51:16;2.20;;;1.60;;
2994;SDS011;35277;49.890;8.222;2023-01-26T12:53:51;2.60;;;1.60;;
2994;SDS011;35277;49.890;8.222;2023-01-26T12:56:24;2.57;;;1.33;;
2994;SDS011;35277;49.890;8.222;2023-01-26T12:58:57;1.33;;;1.23;;
2994;SDS011;35277;49.890;8.222;2023-01-26T13:01:36;3.53;;;1.57;;
2994;SDS011;35277;49.890;8.222;2023-01-26T13:04:07;3.90;;;2.50;;
2994;SDS011;35277;49.890;8.222;2023-01-26T13:06:38;1.33;;;0.80;;
2994;SDS011;35277;49.890;8.222;2023-01-26T13:09:19;2.03;;;1.00;;
2994;SDS011;35277;49.890;8.222;2023-01-26T13:11:50;1.33;;;1.17;;
2994;SDS011;35277;49.890;8.222;2023-01-26T13:14:23;12.67;;;2.07;;
2994;SDS011;35277;49.890;8.222;2023-01-26T13:16:56;1.30;;;0.90;;
2994;SDS011;35277;49.890;8.222;2023-01-26T13:19:50;2.70;;;2.40;;
2994;SDS011;35277;49.890;8.222;2023-01-26T13:22:38;1.10;;;0.70;;
2994;SDS011;35277;49.890;8.222;2023-01-26T13:25:15;2.30;;;1.53;;
2994;SDS011;35277;49.890;8.222;2023-01-26T13:27:44;3.40;;;2.17;;
2994;SDS011;35277;49.890;8.222;2023-01-26T13:30:33;1.43;;;1.33;;
2994;SDS011;35277;49.890;8.222;2023-01-26T13:33:13;3.97;;;2.40;;
2994;SDS011;35277;49.890;8.222;2023-01-26T13:35:44;1.57;;;1.20;;
2994;SDS011;35277;49.890;8.222;2023-01-26T13:38:15;1.10;;;0.73;;
2994;SDS011;35277;49.890;8.222;2023-01-26T13:40:46;2.50;;;1.23;;
2994;SDS011;35277;49.890;8.222;2023-01-26T13:43:25;1.70;;;1.60;;
2994;SDS011;35277;49.890;8.222;2023-01-26T13:45:59;1.30;;;0.87;;
2994;SDS011;35277;49.890;8.222;2023-01-26T13:48:35;1.60;;;0.93;;
2994;SDS011;35277;49.890;8.222;2023-01-26T13:51:10;1.50;;;1.30;;
2994;SDS011;35277;49.890;8.222;2023-01-26T13:53:43;1.60;;;1.23;;
2994;SDS011;35277;49.890;8.222;2023-01-26T13:56:25;2.03;;;1.67;;
2994;SDS011;35277;49.890;8.222;2023-01-26T13:59:06;1.20;;;1.00;;
2994;SDS011;35277;49.890;8.222;2023-01-26T14:01:40;1.00;;;0.50;;
2994;SDS011;35277;49.890;8.222;2023-01-26T14:04:11;1.00;;;0.60;;
2994;SDS011;35277;49.890;8.222;2023-01-26T14:06:41;1.50;;;1.40;;
2994;SDS011;35277;49.890;8.222;2023-01-26T14:09:13;3.63;;;1.93;;
2994;SDS011;35277;49.890;8.222;2023-01-26T14:11:41;1.30;;;0.67;;
2994;SDS011;35277;49.890;8.222;2023-01-26T14:14:16;1.10;;;0.90;;
2994;SDS011;35277;49.890;8.222;2023-01-26T14:16:48;1.40;;;0.97;;
2994;SDS011;35277;49.890;8.222;2023-01-26T14:19:18;1.20;;;0.70;;
2994;SDS011;35277;49.890;8.222;2023-01-26T14:21:47;1.43;;;1.00;;
2994;SDS011;35277;49.890;8.222;2023-01-26T14:24:23;1.43;;;0.77;;
2994;SDS011;35277;49.890;8.222;2023-01-26T14:26:52;1.80;;;0.80;;
2994;SDS011;35277;49.890;8.222;2023-01-26T14:29:21;1.53;;;1.43;;
2994;SDS011;35277;49.890;8.222;2023-01-26T14:31:51;2.23;;;2.03;;
2994;SDS011;35277;49.890;8.222;2023-01-26T14:34:21;1.53;;;1.20;;
2994;SDS011;35277;49.890;8.222;2023-01-26T14:37:03;1.00;;;0.60;;
2994;SDS011;35277;49.890;8.222;2023-01-26T14:39:33;2.37;;;2.17;;
2994;SDS011;35277;49.890;8.222;2023-01-26T14:42:01;5.60;;;2.37;;
2994;SDS011;35277;49.890;8.222;2023-01-26T14:44:30;1.57;;;1.47;;
2994;SDS011;35277;49.890;8.222;2023-01-26T14:46:59;1.20;;;1.10;;
2994;SDS011;35277;49.890;8.222;2023-01-26T14:49:34;1.17;;;0.90;;
2994;SDS011;35277;49.890;8.222;2023-01-26T14:52:13;1.10;;;0.73;;
2994;SDS011;35277;49.890;8.222;2023-01-26T14:54:51;1.00;;;0.50;;
2994;SDS011;35277;49.890;8.222;2023-01-26T14:57:21;2.13;;;1.73;;
2994;SDS011;35277;49.890;8.222;2023-01-26T14:59:51;1.10;;;0.90;;
2994;SDS011;35277;49.890;8.222;2023-01-26T15:02:22;1.77;;;1.20;;
2994;SDS011;35277;49.890;8.222;2023-01-26T15:04:53;1.13;;;0.63;;
2994;SDS011;35277;49.890;8.222;2023-01-26T15:07:31;1.00;;;0.60;;
2994;SDS011;35277;49.890;8.222;2023-01-26T15:10:02;2.73;;;2.53;;
2994;SDS011;35277;49.890;8.222;2023-01-26T15:12:55;2.07;;;1.03;;
2994;SDS011;35277;49.890;8.222;2023-01-26T15:15:25;1.40;;;0.70;;
2994;SDS011;35277;49.890;8.222;2023-01-26T15:18:02;1.67;;;1.23;;
2994;SDS011;35277;49.890;8.222;2023-01-26T15:20:44;1.10;;;0.60;;
2994;SDS011;35277;49.890;8.222;2023-01-26T15:23:26;2.33;;;1.70;;
2994;SDS011;35277;49.890;8.222;2023-01-26T15:26:03;1.40;;;1.10;;
2994;SDS011;35277;49.890;8.222;2023-01-26T15:28:33;1.00;;;0.50;;
2994;SDS011;35277;49.890;8.222;2023-01-26T15:31:01;1.00;;;0.50;;
2994;SDS011;35277;49.890;8.222;2023-01-26T15:36:19;1.40;;;1.30;;
2994;SDS011;35277;49.890;8.222;2023-01-26T15:38:55;3.90;;;0.77;;
2994;SDS011;35277;49.890;8.222;2023-01-26T15:41:29;1.03;;;0.60;;
2994;SDS011;35277;49.890;8.222;2023-01-26T15:43:57;2.83;;;1.60;;